Time;durP1;ratioP1;P1;durP2;ratioP2;P2;SDS_P1;SDS_P2;PMS_P1;PMS_P2;Temp;Humidity;BMP_temperature;BMP_pressure;BME280_temperature;BME280_humidity;BME280_pressure;Samples;Min_cycle;Max_cycle;Signal;HPM_P1;HPM_P2
2023/01/26 00:01:11;;;;;;;9.30;2.25;;;5.20;99.90;;;;;;5025332;28;20136;-73
2023/01/26 00:03:38;;;;;;;10.75;3.05;;;5.10;99.90;;;;;;5010426;28;20050;-73
2023/01/26 00:06:09;;;;;;;11.18;2.97;;;5.10;99.90;;;;;;5009435;28;20080;-73
2023/01/26 00:08:39;;;;;;;8.73;2.38;;;5.10;99.90;;;;;;5001352;28;20050;-73
2023/01/26 00:11:06;;;;;;;14.23;3.35;;;5.00;99.90;;;;;;4991726;28;20041;-73
2023/01/26 00:13:33;;;;;;;15.32;2.22;;;5.00;99.90;;;;;;5032873;28;20048;-74
2023/01/26 00:16:00;;;;;;;16.33;5.78;;;5.00;99.90;;;;;;4991705;28;20133;-73
2023/01/26 00:18:27;;;;;;;11.80;3.15;;;5.00;99.90;;;;;;5005403;28;20492;-74
2023/01/26 00:20:58;;;;;;;7.78;1.88;;;5.10;99.90;;;;;;5010235;28;20050;-74
2023/01/26 00:23:25;;;;;;;17.98;4.22;;;5.00;99.90;;;;;;5009715;28;20042;-73
2023/01/26 00:25:52;;;;;;;10.20;2.22;;;5.00;99.90;;;;;;5009043;28;20055;-74
2023/01/26 00:28:18;;;;;;;14.15;3.70;;;5.00;99.90;;;;;;5008733;28;20037;-75
2023/01/26 00:30:45;;;;;;;16.75;2.10;;;5.00;99.90;;;;;;5008661;28;20050;-74
2023/01/26 00:33:12;;;;;;;18.77;3.17;;;5.00;99.90;;;;;;5014932;28;20740;-75
2023/01/26 00:35:43;;;;;;;10.25;2.75;;;5.00;99.90;;;;;;5008371;28;20133;-75
2023/01/26 00:38:11;;;;;;;19.70;2.60;;;5.00;99.90;;;;;;5007888;28;20058;-74
2023/01/26 00:40:38;;;;;;;11.27;1.83;;;5.00;99.90;;;;;;5008575;28;20452;-74
2023/01/26 00:43:05;;;;;;;14.15;1.90;;;5.00;99.90;;;;;;5008724;28;20046;-74
2023/01/26 00:45:33;;;;;;;14.52;2.67;;;4.90;99.90;;;;;;5009642;28;20136;-74
2023/01/26 00:48:00;;;;;;;8.73;2.03;;;5.00;99.90;;;;;;5009248;28;20046;-74
2023/01/26 00:50:27;;;;;;;11.57;2.20;;;4.90;99.90;;;;;;5009400;28;20049;-74
2023/01/26 00:52:53;;;;;;;11.77;3.40;;;4.90;99.90;;;;;;5009292;28;20148;-73
2023/01/26 00:55:20;;;;;;;10.38;2.42;;;4.90;99.90;;;;;;5009788;28;20057;-73
2023/01/26 00:57:48;;;;;;;13.45;2.28;;;4.90;99.90;;;;;;5009124;28;20065;-73
2023/01/26 01:00:16;;;;;;;12.48;2.33;;;4.90;99.90;;;;;;5041297;28;20064;-74
2023/01/26 01:02:43;;;;;;;10.93;4.10;;;4.90;99.90;;;;;;5009197;28;20082;-73
2023/01/26 01:05:10;;;;;;;11.38;2.83;;;4.90;99.90;;;;;;5009141;28;20129;-72
2023/01/26 01:07:36;;;;;;;22.38;3.40;;;4.80;99.90;;;;;;5009385;28;20084;-74
2023/01/26 01:10:03;;;;;;;19.00;4.32;;;4.80;99.90;;;;;;5008555;28;20041;-72
2023/01/26 01:12:30;;;;;;;10.02;2.58;;;4.80;99.90;;;;;;5009388;28;20053;-73
2023/01/26 01:14:56;;;;;;;8.90;2.40;;;4.70;99.90;;;;;;5009089;28;20041;-73
2023/01/26 01:17:23;;;;;;;7.32;2.50;;;4.70;99.90;;;;;;5009265;28;20591;-73
2023/01/26 01:19:50;;;;;;;14.52;2.85;;;4.70;99.90;;;;;;5008799;28;20056;-73
2023/01/26 01:22:17;;;;;;;7.68;2.45;;;4.60;99.90;;;;;;5009384;28;20053;-73
2023/01/26 01:24:43;;;;;;;19.33;3.45;;;4.60;99.90;;;;;;5008929;28;20050;-73
2023/01/26 01:27:10;;;;;;;10.05;3.88;;;4.60;99.90;;;;;;5008787;28;20060;-72
2023/01/26 01:29:37;;;;;;;20.23;3.17;;;4.60;99.90;;;;;;5009999;28;20052;-72
2023/01/26 01:32:04;;;;;;;8.43;4.32;;;4.60;99.90;;;;;;5010007;28;20057;-73
2023/01/26 01:34:30;;;;;;;16.77;3.45;;;4.50;99.90;;;;;;5009710;28;20046;-73
2023/01/26 01:36:57;;;;;;;12.68;3.03;;;4.50;99.90;;;;;;5010587;28;20054;-72
2023/01/26 01:39:24;;;;;;;16.80;3.97;;;4.50;99.90;;;;;;5009849;28;20052;-72
2023/01/26 01:41:51;;;;;;;12.07;3.30;;;4.50;99.90;;;;;;5010395;28;20073;-75
2023/01/26 01:44:19;;;;;;;15.90;4.07;;;4.50;99.90;;;;;;5008619;28;20477;-75
2023/01/26 01:46:52;;;;;;;13.48;3.97;;;4.40;99.90;;;;;;5009077;28;20830;-75
2023/01/26 01:49:29;;;;;;;14.13;2.97;;;4.40;99.90;;;;;;4661890;28;9999755;-74
2023/01/26 01:52:06;;;;;;;12.40;3.58;;;4.40;99.90;;;;;;5038395;28;20056;-75
2023/01/26 01:54:54;;;;;;;8.30;3.33;;;4.30;99.90;;;;;;5008524;28;20046;-74
2023/01/26 01:57:26;;;;;;;23.55;6.25;;;4.30;99.90;;;;;;5007564;28;20042;-75
2023/01/26 02:00:01;;;;;;;17.02;3.60;;;4.30;99.90;;;;;;5007071;28;20038;-74
2023/01/26 02:02:28;;;;;;;10.80;3.22;;;4.30;99.90;;;;;;5007892;28;20042;-74
2023/01/26 02:04:56;;;;;;;15.10;3.75;;;4.30;99.90;;;;;;5012353;28;20144;-74
2023/01/26 02:07:22;;;;;;;14.65;3.63;;;4.30;99.90;;;;;;5043859;28;20046;-73
2023/01/26 02:10:17;;;;;;;10.90;4.35;;;4.30;99.90;;;;;;5043193;28;20060;-73
2023/01/26 02:12:49;;;;;;;15.43;3.95;;;4.30;99.90;;;;;;5012105;28;20052;-73
2023/01/26 02:15:16;;;;;;;12.52;3.50;;;4.30;99.90;;;;;;5012764;28;20436;-73
2023/01/26 02:17:43;;;;;;;9.30;3.97;;;4.30;99.90;;;;;;5012722;28;20042;-73
2023/01/26 02:20:27;;;;;;;14.45;3.38;;;4.30;99.90;;;;;;5044098;28;20085;-74
2023/01/26 02:23:00;;;;;;;15.52;3.75;;;4.30;99.90;;;;;;5026563;28;20497;-74
2023/01/26 02:25:58;;;;;;;16.80;3.80;;;4.30;99.90;;;;;;5033601;28;20068;-71
2023/01/26 02:28:25;;;;;;;11.80;3.17;;;4.30;99.90;;;;;;5025910;28;20057;-71
2023/01/26 02:30:52;;;;;;;15.15;4.47;;;4.20;99.90;;;;;;5025009;28;20137;-70
2023/01/26 02:33:19;;;;;;;18.80;4.05;;;4.20;99.90;;;;;;5057826;28;20065;-73
2023/01/26 02:35:46;;;;;;;12.20;3.40;;;4.20;99.90;;;;;;5026779;28;20042;-73
2023/01/26 02:38:13;;;;;;;12.98;3.80;;;4.30;99.90;;;;;;5026825;28;20503;-72
2023/01/26 02:40:45;;;;;;;15.05;5.03;;;4.30;99.90;;;;;;5019832;28;20052;-73
2023/01/26 02:43:12;;;;;;;13.25;4.05;;;4.40;99.90;;;;;;5036502;28;20049;-73
2023/01/26 02:45:39;;;;;;;13.70;3.90;;;4.30;99.90;;;;;;5044717;28;20046;-73
2023/01/26 02:48:07;;;;;;;10.93;4.15;;;4.20;99.90;;;;;;5043904;28;20058;-72
2023/01/26 02:50:33;;;;;;;17.60;4.45;;;4.20;99.90;;;;;;5012624;28;20045;-72
2023/01/26 02:53:00;;;;;;;8.75;3.92;;;4.30;99.90;;;;;;5012104;28;20064;-72
2023/01/26 02:55:27;;;;;;;14.70;4.32;;;4.10;99.90;;;;;;5012773;28;20065;-73
2023/01/26 02:58:02;;;;;;;10.55;3.97;;;4.00;99.90;;;;;;5012542;28;20053;-73
2023/01/26 03:00:31;;;;;;;11.02;4.78;;;4.00;99.90;;;;;;5049747;28;20042;-73
2023/01/26 03:04:29;;;;;;;17.05;5.47;;;4.00;99.90;;;;;;5039146;28;20033;-73
2023/01/26 03:07:09;;;;;;;19.13;3.67;;;3.90;99.90;;;;;;5025173;28;20041;-73
2023/01/26 03:09:36;;;;;;;26.10;6.97;;;3.80;99.90;;;;;;5025799;28;20555;-73
2023/01/26 03:12:03;;;;;;;19.25;4.65;;;3.80;99.90;;;;;;5056386;28;20117;-73
2023/01/26 03:14:29;;;;;;;13.18;4.15;;;3.70;99.90;;;;;;5024964;28;20037;-73
2023/01/26 03:16:56;;;;;;;16.85;4.80;;;3.70;99.90;;;;;;5021038;28;20048;-73
2023/01/26 03:27:44;;;;;;;14.43;4.05;;;3.60;99.90;;;;;;5010820;28;20563;-74
2023/01/26 03:30:12;;;;;;;12.15;4.88;;;3.50;99.90;;;;;;5008921;28;20050;-74
2023/01/26 03:32:39;;;;;;;9.88;4.72;;;3.50;99.90;;;;;;5042115;28;20089;-73
2023/01/26 03:35:08;;;;;;;15.95;4.45;;;3.50;99.90;;;;;;5009752;28;20038;-73
2023/01/26 03:37:35;;;;;;;12.70;5.13;;;3.40;99.90;;;;;;5011563;28;20096;-73
2023/01/26 04:00:29;;;;;;;11.32;3.78;;;3.40;99.90;;;;;;5018048;28;20047;-73
2023/01/26 04:08:43;;;;;;;10.70;3.25;;;3.20;99.90;;;;;;4992193;28;20441;-73
2023/01/26 04:11:10;;;;;;;11.00;3.58;;;3.20;99.90;;;;;;5010960;28;20555;-73
2023/01/26 04:22:53;;;;;;;11.73;3.90;;;3.20;99.90;;;;;;5017853;28;20041;-73
2023/01/26 04:25:47;;;;;;;13.77;5.35;;;3.10;99.90;;;;;;5023939;28;20592;-73
2023/01/26 04:32:21;;;;;;;14.85;3.40;;;3.20;99.90;;;;;;5007763;28;20049;-73
2023/01/26 04:34:47;;;;;;;14.23;3.97;;;3.00;99.90;;;;;;5009320;28;20038;-72
2023/01/26 04:37:14;;;;;;;12.00;3.40;;;3.00;99.90;;;;;;5010106;28;20082;-73
2023/01/26 04:39:41;;;;;;;13.27;3.33;;;3.60;99.90;;;;;;5008737;28;20038;-73
2023/01/26 04:42:08;;;;;;;8.75;3.58;;;3.10;99.90;;;;;;5008635;28;20049;-73
2023/01/26 04:44:34;;;;;;;18.10;3.95;;;3.10;99.90;;;;;;5009728;28;20041;-73
2023/01/26 04:47:01;;;;;;;11.90;3.53;;;3.10;99.90;;;;;;5008519;28;20050;-73
2023/01/26 04:49:28;;;;;;;19.17;3.88;;;3.10;99.90;;;;;;5008863;28;20050;-73
2023/01/26 04:51:54;;;;;;;15.65;3.80;;;3.10;99.90;;;;;;5008995;28;20049;-72
2023/01/26 04:54:21;;;;;;;6.38;2.58;;;3.10;99.90;;;;;;5008801;28;20046;-73
2023/01/26 04:56:48;;;;;;;6.85;2.88;;;3.10;99.90;;;;;;5009079;28;20050;-72
2023/01/26 04:59:15;;;;;;;18.08;3.17;;;3.10;99.90;;;;;;5009589;28;20068;-74
2023/01/26 05:01:41;;;;;;;11.27;3.67;;;3.20;99.90;;;;;;5009009;28;20050;-72
2023/01/26 05:04:10;;;;;;;14.38;3.47;;;3.20;99.90;;;;;;5009226;28;20046;-73
2023/01/26 05:06:37;;;;;;;10.38;3.17;;;3.20;99.90;;;;;;5008779;28;20045;-72
2023/01/26 05:09:04;;;;;;;14.07;2.90;;;3.20;99.90;;;;;;5009023;28;20077;-73
2023/01/26 05:11:30;;;;;;;15.07;3.05;;;3.30;99.90;;;;;;5009278;28;20046;-73
2023/01/26 05:13:57;;;;;;;12.43;3.30;;;3.30;99.90;;;;;;5008731;28;20053;-73
2023/01/26 05:16:24;;;;;;;22.48;5.32;;;3.30;99.90;;;;;;5008745;28;20042;-73
2023/01/26 05:18:50;;;;;;;14.23;2.72;;;3.30;99.90;;;;;;5009094;28;20081;-72
2023/01/26 05:21:17;;;;;;;15.25;3.53;;;3.40;99.90;;;;;;5040693;28;20045;-72
2023/01/26 05:23:44;;;;;;;13.18;3.22;;;3.40;99.90;;;;;;5008914;28;20493;-72
2023/01/26 05:26:11;;;;;;;12.07;2.72;;;3.50;99.90;;;;;;5008951;28;20038;-72
2023/01/26 05:28:37;;;;;;;13.18;2.83;;;3.40;99.90;;;;;;5023571;28;20443;-72
2023/01/26 05:31:04;;;;;;;12.93;2.63;;;3.50;99.90;;;;;;5009208;28;20060;-71
2023/01/26 05:33:31;;;;;;;14.50;2.15;;;3.50;99.90;;;;;;5008369;28;20540;-72
2023/01/26 05:35:59;;;;;;;11.00;2.45;;;3.60;99.90;;;;;;5009211;28;20528;-72
2023/01/26 05:38:25;;;;;;;10.40;2.70;;;3.60;99.90;;;;;;5039409;28;20064;-75
2023/01/26 05:40:52;;;;;;;8.95;2.30;;;3.60;99.90;;;;;;5009063;28;20056;-73
2023/01/26 05:43:19;;;;;;;5.70;2.97;;;3.70;99.90;;;;;;5009441;28;20082;-73
2023/01/26 05:45:45;;;;;;;11.38;2.95;;;3.80;99.90;;;;;;5010118;28;20041;-72
2023/01/26 05:48:12;;;;;;;18.13;3.20;;;3.80;99.90;;;;;;5009800;28;20535;-71
2023/01/26 05:50:39;;;;;;;19.60;2.97;;;3.80;99.90;;;;;;5009550;28;20056;-71
2023/01/26 05:53:06;;;;;;;9.77;2.45;;;3.80;99.90;;;;;;5008869;28;20038;-71
2023/01/26 05:55:32;;;;;;;17.25;3.30;;;3.90;99.90;;;;;;5008657;28;20081;-71
2023/01/26 05:57:59;;;;;;;10.98;2.88;;;3.90;99.90;;;;;;5008590;28;20042;-72
2023/01/26 06:00:26;;;;;;;15.98;3.20;;;4.00;99.90;;;;;;5008912;28;20057;-70
2023/01/26 06:02:53;;;;;;;14.15;3.10;;;4.00;99.90;;;;;;5008518;28;20050;-72
2023/01/26 06:05:19;;;;;;;12.02;2.17;;;4.00;99.90;;;;;;5009044;28;20034;-71
2023/01/26 06:07:46;;;;;;;21.50;3.22;;;4.00;99.90;;;;;;5008834;28;20057;-72
2023/01/26 06:10:13;;;;;;;15.88;2.92;;;4.10;99.90;;;;;;5009540;28;20117;-73
2023/01/26 06:12:41;;;;;;;17.83;2.72;;;4.10;99.90;;;;;;5008858;28;20185;-72
2023/01/26 06:15:09;;;;;;;19.90;3.10;;;4.10;99.90;;;;;;5008691;28;20077;-72
2023/01/26 06:17:35;;;;;;;21.20;3.40;;;4.20;99.90;;;;;;5008312;28;20050;-72
2023/01/26 06:20:02;;;;;;;21.08;3.17;;;4.20;99.90;;;;;;5008298;28;20050;-72
2023/01/26 06:22:29;;;;;;;15.13;2.22;;;4.20;99.90;;;;;;5007966;28;20497;-73
2023/01/26 06:24:56;;;;;;;9.90;3.05;;;4.30;99.90;;;;;;5023119;28;20057;-72
2023/01/26 06:27:23;;;;;;;18.45;2.75;;;4.30;99.90;;;;;;5007938;28;20492;-74
2023/01/26 06:29:49;;;;;;;11.57;3.90;;;4.30;99.90;;;;;;5006745;28;20497;-73
2023/01/26 06:32:16;;;;;;;17.40;2.88;;;4.30;99.90;;;;;;5007966;28;20058;-73
2023/01/26 06:34:43;;;;;;;15.63;2.72;;;4.40;99.90;;;;;;5006660;28;21610;-73
2023/01/26 06:37:09;;;;;;;13.40;2.50;;;4.40;99.90;;;;;;5007791;28;20141;-72
2023/01/26 06:39:37;;;;;;;15.10;2.97;;;4.40;99.90;;;;;;5008010;28;20058;-72
2023/01/26 06:42:03;;;;;;;22.00;4.50;;;4.40;99.90;;;;;;5008268;28;20050;-72
2023/01/26 06:44:30;;;;;;;12.63;3.72;;;4.50;99.90;;;;;;5007972;28;20064;-72
2023/01/26 06:46:57;;;;;;;12.20;2.78;;;4.40;99.90;;;;;;4661021;28;9999812;-72
2023/01/26 06:49:24;;;;;;;15.65;4.28;;;4.40;99.90;;;;;;5007268;28;20592;-72
2023/01/26 06:51:58;;;;;;;14.45;4.40;;;4.40;99.90;;;;;;5009146;28;20045;-73
2023/01/26 06:54:25;;;;;;;10.15;3.08;;;4.40;99.90;;;;;;5039606;28;20057;-72
2023/01/26 06:56:52;;;;;;;18.30;2.90;;;4.50;99.90;;;;;;5009794;28;20617;-72
2023/01/26 06:59:19;;;;;;;18.27;3.65;;;4.50;99.90;;;;;;5008969;28;20050;-72
2023/01/26 07:01:47;;;;;;;19.85;3.38;;;4.50;99.90;;;;;;5004648;28;20045;-72
2023/01/26 07:04:15;;;;;;;12.18;3.00;;;4.50;99.90;;;;;;5011098;28;20053;-71
2023/01/26 07:06:42;;;;;;;10.07;2.75;;;4.50;99.90;;;;;;5010165;28;20041;-73
2023/01/26 07:09:09;;;;;;;14.77;2.83;;;4.50;99.90;;;;;;5008788;28;20414;-74
2023/01/26 07:11:36;;;;;;;14.48;2.63;;;4.50;99.90;;;;;;5009372;28;20049;-74
2023/01/26 07:14:05;;;;;;;8.25;2.60;;;4.50;99.90;;;;;;5021829;28;20133;-74
2023/01/26 07:16:32;;;;;;;15.10;3.35;;;4.60;99.90;;;;;;5015093;28;20056;-75
2023/01/26 07:18:59;;;;;;;15.13;3.70;;;4.60;99.90;;;;;;5007755;28;20054;-73
2023/01/26 07:21:26;;;;;;;11.18;2.95;;;4.60;99.90;;;;;;5007345;28;20512;-73
2023/01/26 07:23:54;;;;;;;12.50;2.80;;;4.60;99.90;;;;;;5007390;28;20057;-74
2023/01/26 07:26:21;;;;;;;13.77;3.15;;;4.50;99.90;;;;;;5007141;28;20523;-72
2023/01/26 07:28:47;;;;;;;13.10;3.13;;;4.60;99.90;;;;;;5007406;28;20057;-72
2023/01/26 07:31:14;;;;;;;16.92;3.60;;;4.60;99.90;;;;;;5007375;28;20064;-73
2023/01/26 07:34:09;;;;;;;13.77;3.90;;;4.60;99.90;;;;;;5007259;28;20692;-74
2023/01/26 07:36:36;;;;;;;9.95;3.22;;;4.60;99.90;;;;;;5009552;28;20057;-73
2023/01/26 07:39:04;;;;;;;14.70;3.45;;;4.60;99.90;;;;;;5014409;28;20072;-76
2023/01/26 07:41:34;;;;;;;24.70;4.78;;;4.60;99.90;;;;;;5028733;28;20112;-73
2023/01/26 07:44:01;;;;;;;9.40;3.58;;;4.60;99.90;;;;;;5031418;28;20038;-72
2023/01/26 07:46:27;;;;;;;19.52;3.40;;;4.60;99.90;;;;;;5026080;28;20097;-73
2023/01/26 07:48:55;;;;;;;16.70;3.35;;;4.50;99.90;;;;;;5024440;28;20499;-72
2023/01/26 07:51:22;;;;;;;16.73;3.28;;;4.60;99.90;;;;;;5025969;28;20041;-70
2023/01/26 07:53:49;;;;;;;14.45;3.67;;;4.70;99.90;;;;;;5025921;28;20061;-70
2023/01/26 07:56:18;;;;;;;24.10;3.80;;;4.70;99.90;;;;;;5025887;28;20038;-70
2023/01/26 07:58:51;;;;;;;24.42;4.32;;;4.60;99.90;;;;;;5015005;28;20132;-71
2023/01/26 08:01:18;;;;;;;17.42;3.40;;;4.70;99.90;;;;;;5010173;28;20077;-71
2023/01/26 08:03:45;;;;;;;13.38;3.90;;;4.60;99.90;;;;;;5009550;28;20056;-71
2023/01/26 08:06:12;;;;;;;21.58;5.75;;;4.60;99.90;;;;;;5010464;28;20073;-71
2023/01/26 08:08:41;;;;;;;16.25;4.22;;;4.60;99.90;;;;;;5039858;28;20053;-70
2023/01/26 08:11:08;;;;;;;11.43;3.15;;;4.60;99.90;;;;;;5009157;28;20486;-70
2023/01/26 08:13:35;;;;;;;14.02;3.42;;;4.60;99.90;;;;;;5040694;28;20520;-69
2023/01/26 08:16:09;;;;;;;22.52;5.00;;;4.70;99.90;;;;;;5008876;28;20045;-71
2023/01/26 08:18:39;;;;;;;;;;;4.70;99.90;;;;;;5009222;28;20046;-70
2023/01/26 08:21:06;;;;;;;18.17;5.35;;;4.70;99.90;;;;;;5024562;28;19964;-70
2023/01/26 08:23:33;;;;;;;17.58;4.00;;;4.70;99.90;;;;;;5009401;28;20050;-70
2023/01/26 08:26:01;;;;;;;10.43;2.67;;;4.80;99.90;;;;;;5008727;28;20097;-70
2023/01/26 08:28:28;;;;;;;15.32;2.50;;;4.80;99.90;;;;;;5008982;28;20372;-71
2023/01/26 08:30:55;;;;;;;16.73;3.30;;;4.80;99.90;;;;;;5040772;28;20141;-70
2023/01/26 08:33:23;;;;;;;5.78;2.28;;;4.70;99.90;;;;;;5009436;28;20505;-73
2023/01/26 08:35:49;;;;;;;12.68;2.53;;;4.80;99.90;;;;;;5009443;28;20096;-72
2023/01/26 08:38:16;;;;;;;12.57;3.03;;;4.80;99.90;;;;;;5008706;28;20449;-72
2023/01/26 08:40:43;;;;;;;12.30;2.75;;;4.80;99.90;;;;;;5008977;28;20054;-71
2023/01/26 08:43:10;;;;;;;10.77;2.75;;;4.80;99.90;;;;;;5009457;28;20488;-71
2023/01/26 08:45:36;;;;;;;22.90;3.78;;;4.90;99.90;;;;;;5007748;28;20089;-71
2023/01/26 08:48:03;;;;;;;11.52;2.65;;;4.90;99.90;;;;;;5008978;28;20088;-71
2023/01/26 08:50:42;;;;;;;16.35;3.72;;;4.90;99.90;;;;;;5001192;28;20038;-71
2023/01/26 08:53:09;;;;;;;11.30;3.58;;;4.90;99.90;;;;;;5007363;28;20516;-70
2023/01/26 08:55:36;;;;;;;8.40;3.50;;;4.90;99.90;;;;;;5007389;28;20064;-70
2023/01/26 08:58:03;;;;;;;14.32;4.25;;;4.90;99.90;;;;;;5008265;28;20100;-72
2023/01/26 09:00:30;;;;;;;13.88;3.40;;;5.00;99.90;;;;;;5007391;28;20060;-70
2023/01/26 09:02:58;;;;;;;18.08;3.80;;;5.00;99.90;;;;;;5007273;28;20148;-70
2023/01/26 09:05:26;;;;;;;14.75;3.20;;;5.00;99.90;;;;;;5006731;28;20072;-70
2023/01/26 09:07:52;;;;;;;13.50;4.35;;;5.00;99.90;;;;;;5007072;28;20075;-70
2023/01/26 09:10:19;;;;;;;12.45;4.07;;;5.00;99.90;;;;;;5007108;28;20054;-70
2023/01/26 09:12:46;;;;;;;11.43;4.03;;;5.00;99.90;;;;;;5006440;28;20054;-72
2023/01/26 09:15:13;;;;;;;13.48;3.28;;;5.10;99.90;;;;;;5006940;28;20042;-70
2023/01/26 09:17:41;;;;;;;16.42;3.67;;;5.10;99.90;;;;;;5008132;28;20132;-71
2023/01/26 09:20:09;;;;;;;9.52;3.92;;;5.20;99.90;;;;;;5008566;28;20145;-71
2023/01/26 09:22:37;;;;;;;15.90;4.97;;;5.10;99.90;;;;;;5039951;28;20119;-71
2023/01/26 09:25:04;;;;;;;11.55;3.10;;;5.10;99.90;;;;;;5039907;28;20128;-71
2023/01/26 09:27:31;;;;;;;21.38;4.95;;;5.20;99.90;;;;;;5007928;28;20052;-71
2023/01/26 09:29:58;;;;;;;19.38;3.78;;;5.20;99.90;;;;;;5008493;28;20137;-71
2023/01/26 09:32:25;;;;;;;15.25;4.43;;;5.20;99.90;;;;;;5008599;28;20133;-72
2023/01/26 09:34:52;;;;;;;7.97;2.83;;;5.20;99.90;;;;;;5008237;28;20046;-72
2023/01/26 09:37:18;;;;;;;12.25;3.45;;;5.20;99.90;;;;;;5008426;28;20126;-72
2023/01/26 09:39:45;;;;;;;10.40;3.13;;;5.20;99.90;;;;;;5039911;28;20071;-72
2023/01/26 09:42:34;;;;;;;12.32;4.00;;;5.10;99.90;;;;;;4660456;28;9999793;-71
2023/01/26 09:45:13;;;;;;;10.30;3.50;;;5.20;99.90;;;;;;5039898;28;20084;-72
2023/01/26 09:48:02;;;;;;;15.25;3.90;;;5.20;99.90;;;;;;5007941;28;20133;-72
2023/01/26 09:50:32;;;;;;;15.10;4.28;;;5.30;99.90;;;;;;5040062;28;20049;-71
2023/01/26 09:53:26;;;;;;;16.80;4.38;;;5.30;99.90;;;;;;5039615;28;20482;-71
2023/01/26 09:55:53;;;;;;;13.95;5.07;;;5.30;99.90;;;;;;5007047;28;20580;-72
2023/01/26 09:58:34;;;;;;;17.70;4.53;;;5.30;99.90;;;;;;5006934;28;20045;-70
2023/01/26 10:01:01;;;;;;;13.48;4.68;;;5.30;99.90;;;;;;5039372;28;20049;-71
2023/01/26 10:03:43;;;;;;;15.10;5.28;;;5.30;99.90;;;;;;5008536;28;20046;-71
2023/01/26 10:06:15;;;;;;;14.43;4.88;;;5.30;99.90;;;;;;5023902;28;20054;-70
2023/01/26 10:08:41;;;;;;;18.67;6.80;;;5.30;99.90;;;;;;5039781;28;20049;-72
2023/01/26 10:11:25;;;;;;;14.05;5.63;;;5.30;99.90;;;;;;5040081;28;20037;-71
2023/01/26 10:14:00;;;;;;;15.68;5.20;;;5.30;99.90;;;;;;4998598;28;20101;-71
2023/01/26 10:16:26;;;;;;;12.07;5.13;;;5.30;99.90;;;;;;5026014;28;20042;-71
2023/01/26 10:18:58;;;;;;;10.68;4.72;;;5.30;99.90;;;;;;5039960;28;20046;-71
2023/01/26 10:21:28;;;;;;;18.20;5.97;;;5.30;99.90;;;;;;5039266;28;20053;-71
2023/01/26 10:23:54;;;;;;;9.98;5.88;;;5.30;99.90;;;;;;5040770;28;20046;-71
2023/01/26 10:26:22;;;;;;;19.48;5.93;;;5.40;99.90;;;;;;5011242;28;20046;-72
2023/01/26 10:28:50;;;;;;;16.52;5.43;;;5.40;99.90;;;;;;5008673;28;20092;-72
2023/01/26 10:31:27;;;;;;;13.02;5.13;;;5.40;99.90;;;;;;5043820;28;20064;-72
2023/01/26 10:33:59;;;;;;;19.45;5.82;;;5.50;99.90;;;;;;5011740;28;20080;-70
2023/01/26 10:36:30;;;;;;;14.15;5.70;;;5.50;99.90;;;;;;5011818;28;20045;-72
2023/01/26 10:39:07;;;;;;;18.45;5.97;;;5.60;99.90;;;;;;5011686;28;20046;-72
2023/01/26 10:41:34;;;;;;;17.60;7.20;;;5.70;99.90;;;;;;5012093;28;20132;-72
2023/01/26 10:44:03;;;;;;;17.08;5.38;;;5.60;99.90;;;;;;5043368;28;20049;-71
2023/01/26 10:46:38;;;;;;;17.00;5.75;;;5.60;99.90;;;;;;5011522;28;20481;-72
2023/01/26 10:49:07;;;;;;;19.70;5.88;;;5.70;99.90;;;;;;5009848;28;20049;-70
2023/01/26 10:51:36;;;;;;;15.80;5.47;;;5.70;99.90;;;;;;5011656;28;20050;-72
2023/01/26 10:54:20;;;;;;;16.73;5.43;;;5.70;99.90;;;;;;5010766;28;20054;-73
2023/01/26 10:57:03;;;;;;;18.27;6.70;;;5.70;99.90;;;;;;5011116;28;20057;-72
2023/01/26 10:59:37;;;;;;;15.43;6.57;;;5.70;99.90;;;;;;5009396;28;20338;-71
2023/01/26 11:02:10;;;;;;;15.27;5.93;;;5.80;99.90;;;;;;5042099;28;20041;-71
2023/01/26 11:04:38;;;;;;;10.20;5.07;;;5.80;99.90;;;;;;5011319;28;20054;-72
2023/01/26 11:07:25;;;;;;;22.30;6.78;;;5.80;99.90;;;;;;5042121;28;20133;-72
2023/01/26 11:09:52;;;;;;;15.40;6.20;;;5.80;99.90;;;;;;5010983;28;20136;-72
2023/01/26 11:12:20;;;;;;;20.58;6.22;;;5.80;99.90;;;;;;5011262;28;20042;-72
2023/01/26 11:15:17;;;;;;;15.40;5.30;;;5.90;99.90;;;;;;5011120;28;20050;-72
2023/01/26 11:17:47;;;;;;;19.23;5.15;;;5.90;99.90;;;;;;5010229;28;20675;-71
2023/01/26 11:20:29;;;;;;;14.68;6.05;;;5.90;99.90;;;;;;5010735;28;20093;-71
2023/01/26 11:23:20;;;;;;;15.60;5.70;;;5.90;99.90;;;;;;5010857;28;20042;-72
2023/01/26 11:25:57;;;;;;;15.05;6.25;;;5.90;99.90;;;;;;5035970;28;20390;-72
2023/01/26 11:28:37;;;;;;;18.50;6.30;;;5.90;99.90;;;;;;5009523;28;20053;-71
2023/01/26 11:31:30;;;;;;;14.13;5.85;;;5.90;99.90;;;;;;5024735;28;20149;-72
2023/01/26 11:34:02;;;;;;;13.02;6.70;;;6.00;99.90;;;;;;5039304;28;20119;-72
2023/01/26 11:36:35;;;;;;;10.43;4.65;;;6.00;99.90;;;;;;4997937;28;20080;-72
2023/01/26 11:39:11;;;;;;;12.32;5.07;;;6.00;99.90;;;;;;5009991;28;20501;-72
2023/01/26 11:41:53;;;;;;;18.08;4.80;;;6.00;99.90;;;;;;5041425;28;20126;-72
2023/01/26 11:44:34;;;;;;;18.50;5.20;;;6.00;99.90;;;;;;5010318;28;20041;-71
2023/01/26 11:47:04;;;;;;;16.65;4.15;;;6.10;99.90;;;;;;5015388;28;20064;-71
2023/01/26 11:49:32;;;;;;;18.00;4.45;;;6.10;99.90;;;;;;5010222;28;20420;-71
2023/01/26 11:52:01;;;;;;;16.65;4.43;;;6.20;99.90;;;;;;5010285;28;20042;-71
2023/01/26 11:54:28;;;;;;;23.30;3.80;;;6.20;99.90;;;;;;5009888;28;20104;-71
2023/01/26 11:57:03;;;;;;;17.52;3.67;;;6.20;99.90;;;;;;5010038;28;20516;-71
2023/01/26 11:59:43;;;;;;;17.55;3.55;;;6.20;99.90;;;;;;5041404;28;20089;-72
2023/01/26 12:02:29;;;;;;;15.02;3.47;;;6.30;99.90;;;;;;5041607;28;20042;-71
2023/01/26 12:05:01;;;;;;;8.73;3.75;;;6.30;99.90;;;;;;5041729;28;20137;-71
2023/01/26 12:07:30;;;;;;;20.33;4.28;;;6.30;99.90;;;;;;5039975;28;20042;-71
2023/01/26 12:09:56;;;;;;;16.30;3.25;;;6.30;99.90;;;;;;5040955;28;20569;-71
2023/01/26 12:12:32;;;;;;;18.33;5.07;;;6.30;99.90;;;;;;5041328;28;20042;-71
2023/01/26 12:15:01;;;;;;;13.20;3.17;;;6.40;99.90;;;;;;5041308;28;20084;-71
2023/01/26 12:17:51;;;;;;;22.23;3.40;;;6.40;99.90;;;;;;5037264;28;20038;-72
2023/01/26 12:20:24;;;;;;;18.42;4.68;;;6.40;99.90;;;;;;5009450;28;20092;-72
2023/01/26 12:23:09;;;;;;;13.20;3.13;;;6.50;99.90;;;;;;5009750;28;20516;-71
2023/01/26 12:25:40;;;;;;;16.52;3.70;;;6.50;99.90;;;;;;5009264;28;20046;-71
2023/01/26 12:28:20;;;;;;;13.73;3.40;;;6.50;99.90;;;;;;5040989;28;20042;-71
2023/01/26 12:30:49;;;;;;;25.67;3.67;;;6.50;99.90;;;;;;5039837;28;20073;-71
2023/01/26 12:33:16;;;;;;;23.48;3.58;;;6.60;99.90;;;;;;5009319;28;20042;-71
2023/01/26 12:36:02;;;;;;;18.40;3.67;;;6.60;99.90;;;;;;5009579;28;20493;-71
2023/01/26 12:39:07;;;;;;;21.50;3.40;;;6.70;99.90;;;;;;5008901;28;20129;-71
2023/01/26 12:41:36;;;;;;;;;;;6.70;99.90;;;;;;5009742;28;20038;-71
2023/01/26 12:44:06;;;;;;;18.98;3.83;;;6.70;99.90;;;;;;5024488;28;19921;-71
2023/01/26 12:46:35;;;;;;;19.67;4.03;;;6.80;99.90;;;;;;5008345;28;20092;-71
2023/01/26 12:49:04;;;;;;;16.63;3.00;;;6.90;99.90;;;;;;5008929;28;20060;-71
2023/01/26 12:51:43;;;;;;;14.30;2.90;;;6.90;99.90;;;;;;5040443;28;20129;-71
2023/01/26 12:54:20;;;;;;;16.02;2.80;;;7.00;99.90;;;;;;4998997;28;20089;-71
2023/01/26 12:56:52;;;;;;;22.55;3.13;;;7.10;99.90;;;;;;5007441;28;20052;-72
2023/01/26 12:59:20;;;;;;;16.73;3.47;;;7.10;99.90;;;;;;5029962;28;20057;-71
2023/01/26 13:02:15;;;;;;;10.23;2.72;;;7.10;99.90;;;;;;5035291;28;20042;-71
2023/01/26 13:04:43;;;;;;;14.73;3.15;;;7.10;99.90;;;;;;4997995;28;20501;-70
2023/01/26 13:07:28;;;;;;;17.02;2.88;;;7.30;99.90;;;;;;4999733;28;20543;-71
2023/01/26 13:10:13;;;;;;;19.33;2.97;;;7.20;99.90;;;;;;5000474;28;20104;-71
2023/01/26 13:12:48;;;;;;;17.85;5.18;;;7.30;99.90;;;;;;5008538;28;20058;-71
2023/01/26 13:15:17;;;;;;;13.68;2.80;;;7.30;99.90;;;;;;5008937;28;20050;-71
2023/01/26 13:17:54;;;;;;;20.98;3.45;;;7.30;99.90;;;;;;5008460;28;20049;-71
2023/01/26 13:20:23;;;;;;;14.95;2.45;;;7.30;99.90;;;;;;5008697;28;20049;-70
2023/01/26 13:22:50;;;;;;;13.15;2.78;;;7.40;99.90;;;;;;5008281;28;20588;-70
2023/01/26 13:25:32;;;;;;;19.10;3.15;;;7.50;99.90;;;;;;5023553;28;20465;-70
2023/01/26 13:28:00;;;;;;;17.55;4.35;;;7.50;99.90;;;;;;5006905;28;20103;-72
2023/01/26 13:30:30;;;;;;;16.52;3.40;;;7.50;99.90;;;;;;5007290;28;20100;-70
2023/01/26 13:33:21;;;;;;;23.73;6.38;;;7.50;99.90;;;;;;5008448;28;20045;-71
2023/01/26 13:35:50;;;;;;;19.40;3.47;;;7.50;99.90;;;;;;4989598;28;20120;-71
2023/01/26 13:38:30;;;;;;;13.38;3.08;;;7.50;99.90;;;;;;5007061;28;20469;-71
2023/01/26 13:40:57;;;;;;;17.35;4.28;;;7.50;99.90;;;;;;5039511;28;20342;-71
2023/01/26 13:43:39;;;;;;;13.63;3.00;;;7.50;99.90;;;;;;5008320;28;20060;-67
2023/01/26 13:46:18;;;;;;;14.98;2.97;;;7.50;99.90;;;;;;5040105;28;20129;-71
2023/01/26 13:48:46;;;;;;;17.85;3.47;;;7.50;99.90;;;;;;5008147;28;20061;-71
2023/01/26 13:51:34;;;;;;;24.73;3.90;;;7.60;99.90;;;;;;5008593;28;20081;-71
2023/01/26 13:54:13;;;;;;;19.35;3.17;;;7.60;99.90;;;;;;5007928;28;20549;-72